createdAt,value
2018-02-16T00:01:10.544Z,23.90
2018-02-16T00:03:38.385Z,25.97
2018-02-16T00:06:06.248Z,22.93
2018-02-16T00:08:34.160Z,26.40
2018-02-16T00:11:02.933Z,24.93
2018-02-16T00:13:30.812Z,25.87
2018-02-16T00:15:58.669Z,26.53
2018-02-16T00:18:26.509Z,27.30
2018-02-16T00:20:54.403Z,28.43
2018-02-16T00:23:22.306Z,25.60
2018-02-16T00:25:50.289Z,26.70
2018-02-16T00:28:18.230Z,27.43
2018-02-16T00:30:46.188Z,32.17
2018-02-16T00:33:14.666Z,27.40
2018-02-16T00:35:42.565Z,30.00
2018-02-16T00:38:10.453Z,29.53
2018-02-16T00:40:38.303Z,27.20
2018-02-16T00:43:06.199Z,27.03
2018-02-16T00:45:34.304Z,27.47
2018-02-16T00:48:02.295Z,25.37
2018-02-16T00:50:30.216Z,26.20
2018-02-16T00:52:58.111Z,26.30
2018-02-16T00:55:26.015Z,25.53
2018-02-16T00:57:53.904Z,26.97
2018-02-16T01:00:21.740Z,26.93
2018-02-16T01:02:49.684Z,27.47
2018-02-16T01:05:17.559Z,26.47
2018-02-16T01:07:45.539Z,26.77
2018-02-16T01:10:13.438Z,26.80
2018-02-16T01:12:41.351Z,28.97
2018-02-16T01:15:09.283Z,26.60
2018-02-16T01:17:37.276Z,28.40
2018-02-16T01:20:05.240Z,27.47
2018-02-16T01:22:33.089Z,27.20
2018-02-16T01:25:00.955Z,28.07
2018-02-16T01:27:28.883Z,28.50
2018-02-16T01:29:56.757Z,25.70
2018-02-16T01:32:24.640Z,27.60
2018-02-16T01:34:52.496Z,27.47
2018-02-16T01:37:20.342Z,27.70
2018-02-16T01:39:48.320Z,28.73
2018-02-16T01:42:16.175Z,27.20
2018-02-16T01:44:44.015Z,27.57
2018-02-16T01:47:11.891Z,27.33
2018-02-16T01:49:45.884Z,26.60
2018-02-16T01:52:13.756Z,27.60
2018-02-16T01:54:41.579Z,28.43
2018-02-16T01:57:09.421Z,26.07
2018-02-16T01:59:37.284Z,28.70
2018-02-16T02:02:05.145Z,28.00
2018-02-16T02:04:32.984Z,26.93
2018-02-16T02:07:00.847Z,26.80
2018-02-16T02:09:28.701Z,25.87
2018-02-16T02:11:56.543Z,26.37
2018-02-16T02:14:24.434Z,26.40
2018-02-16T02:16:52.315Z,26.40
2018-02-16T02:19:20.167Z,25.93
2018-02-16T02:21:48.044Z,25.40
2018-02-16T02:24:15.956Z,25.73
2018-02-16T02:26:43.852Z,26.23
2018-02-16T02:29:11.723Z,26.17
2018-02-16T02:31:39.580Z,26.80
2018-02-16T02:34:07.499Z,27.97
2018-02-16T02:36:35.368Z,26.73
2018-02-16T02:39:03.248Z,25.27
2018-02-16T02:41:31.132Z,24.97
2018-02-16T02:43:59.048Z,26.87
2018-02-16T02:46:26.900Z,26.40
2018-02-16T02:48:54.766Z,26.10
2018-02-16T02:51:22.647Z,27.17
2018-02-16T02:53:50.507Z,28.23
2018-02-16T02:56:18.388Z,25.57
2018-02-16T02:58:46.240Z,27.83
2018-02-16T03:01:14.093Z,25.87
2018-02-16T03:03:42.613Z,27.17
2018-02-16T03:06:10.460Z,27.07
2018-02-16T03:08:38.373Z,27.33
2018-02-16T03:11:06.275Z,29.10
2018-02-16T03:13:34.131Z,28.10
2018-02-16T03:16:02.009Z,27.90
2018-02-16T03:18:29.892Z,28.67
2018-02-16T03:20:57.793Z,27.80
2018-02-16T03:23:25.649Z,27.40
2018-02-16T03:25:53.561Z,26.87
2018-02-16T03:28:21.409Z,27.57
2018-02-16T03:30:49.295Z,27.53
2018-02-16T03:33:17.177Z,27.73
2018-02-16T03:35:45.145Z,26.30
2018-02-16T03:38:12.979Z,25.30
2018-02-16T03:40:40.872Z,26.00
2018-02-16T03:43:08.740Z,26.17
2018-02-16T03:45:36.592Z,25.93
2018-02-16T03:48:04.498Z,26.57
2018-02-16T03:50:32.424Z,26.33
2018-02-16T03:53:00.284Z,26.30
2018-02-16T03:55:28.148Z,28.03
2018-02-16T03:57:56.033Z,27.67
2018-02-16T04:00:23.901Z,28.30
2018-02-16T04:02:51.792Z,28.30
2018-02-16T04:05:19.628Z,27.73
2018-02-16T04:07:47.479Z,28.90
2018-02-16T04:10:15.370Z,26.50
2018-02-16T04:12:43.207Z,28.47
2018-02-16T04:15:11.040Z,30.17
2018-02-16T04:17:38.930Z,28.37
2018-02-16T04:20:06.805Z,29.93
2018-02-16T04:22:34.657Z,29.20
2018-02-16T04:25:02.540Z,29.07
2018-02-16T04:27:30.406Z,29.17
2018-02-16T04:29:58.284Z,30.07
2018-02-16T04:32:26.159Z,31.03
2018-02-16T04:34:54.040Z,30.40
2018-02-16T04:37:21.957Z,30.23
2018-02-16T04:39:49.808Z,30.83
2018-02-16T04:42:17.696Z,31.07
2018-02-16T04:44:45.553Z,31.43
2018-02-16T04:47:13.485Z,32.00
2018-02-16T04:49:41.360Z,33.60
2018-02-16T04:52:09.227Z,33.70
2018-02-16T04:54:37.080Z,35.77
2018-02-16T04:57:04.958Z,34.10
2018-02-16T04:59:32.799Z,33.47
2018-02-16T05:02:00.660Z,32.53
2018-02-16T05:04:28.523Z,35.67
2018-02-16T05:06:56.467Z,35.93
2018-02-16T05:09:24.396Z,36.13
2018-02-16T05:11:52.267Z,34.80
2018-02-16T05:14:20.159Z,34.40
2018-02-16T05:16:48.124Z,37.07
2018-02-16T05:19:16.011Z,36.27
2018-02-16T05:21:43.867Z,36.00
2018-02-16T05:24:11.722Z,37.60
2018-02-16T05:26:39.599Z,35.40
2018-02-16T05:29:07.516Z,36.00
2018-02-16T05:31:35.460Z,35.03
2018-02-16T05:34:03.331Z,34.47
2018-02-16T05:36:31.199Z,34.10
2018-02-16T05:38:59.107Z,36.70
2018-02-16T05:41:26.980Z,37.00
2018-02-16T05:43:54.829Z,38.93
2018-02-16T05:46:22.711Z,38.73
2018-02-16T05:48:50.573Z,38.10
2018-02-16T05:51:18.415Z,37.73
2018-02-16T05:53:46.283Z,43.83
2018-02-16T05:56:14.135Z,40.67
2018-02-16T05:58:42.070Z,36.83
2018-02-16T06:01:09.920Z,37.60
2018-02-16T06:03:37.771Z,36.97
2018-02-16T06:06:05.696Z,38.33
2018-02-16T06:08:33.538Z,37.20
2018-02-16T06:11:01.446Z,35.67
2018-02-16T06:13:29.311Z,35.73
2018-02-16T06:15:57.191Z,38.60
2018-02-16T06:18:25.072Z,33.67
2018-02-16T06:20:52.938Z,33.47
2018-02-16T06:23:20.836Z,35.73
2018-02-16T06:25:48.719Z,31.93
2018-02-16T06:28:16.579Z,31.90
2018-02-16T06:30:44.479Z,31.30
2018-02-16T06:33:12.338Z,30.10
2018-02-16T06:35:40.215Z,29.23
2018-02-16T06:38:08.075Z,30.00
2018-02-16T06:40:35.993Z,31.50
2018-02-16T06:43:03.850Z,29.73
2018-02-16T06:45:31.791Z,28.53
2018-02-16T06:47:59.627Z,29.77
2018-02-16T06:50:27.554Z,26.60
2018-02-16T06:52:55.436Z,26.60
2018-02-16T06:55:23.399Z,28.40
2018-02-16T06:57:51.267Z,29.03
2018-02-16T07:00:19.572Z,26.30
2018-02-16T07:02:47.426Z,25.33
2018-02-16T07:05:15.298Z,26.13
2018-02-16T07:07:43.139Z,26.40
2018-02-16T07:10:10.984Z,27.07
2018-02-16T07:12:38.841Z,25.77
2018-02-16T07:15:06.718Z,26.67
2018-02-16T07:17:35.447Z,28.57
2018-02-16T07:20:03.315Z,23.83
2018-02-16T07:22:31.176Z,23.57
2018-02-16T07:24:59.023Z,23.27
2018-02-16T07:27:26.897Z,22.83
2018-02-16T07:29:54.738Z,21.90
2018-02-16T07:32:23.476Z,22.80
2018-02-16T07:34:51.310Z,20.87
2018-02-16T07:37:19.181Z,24.33
2018-02-16T07:39:47.045Z,19.50
2018-02-16T07:42:14.903Z,22.47
2018-02-16T07:44:42.784Z,28.50
2018-02-16T07:47:10.646Z,25.73
2018-02-16T07:49:38.498Z,23.23
2018-02-16T07:52:06.372Z,21.57
2018-02-16T07:54:34.242Z,19.20
2018-02-16T07:57:02.107Z,18.97
2018-02-16T07:59:29.947Z,19.33
2018-02-16T08:01:57.794Z,18.60
2018-02-16T08:04:25.652Z,17.80
2018-02-16T08:06:53.507Z,17.50
2018-02-16T08:09:21.398Z,18.67
2018-02-16T08:11:49.243Z,17.57
2018-02-16T08:14:17.159Z,18.43
2018-02-16T08:16:45.015Z,18.13
2018-02-16T08:19:12.929Z,18.57
2018-02-16T08:21:40.893Z,17.43
2018-02-16T08:24:08.735Z,16.00
2018-02-16T08:26:36.594Z,16.93
2018-02-16T08:29:04.427Z,17.27
2018-02-16T08:31:32.291Z,17.90
2018-02-16T08:34:00.201Z,17.30
2018-02-16T08:36:28.105Z,16.70
2018-02-16T08:38:55.970Z,18.30
2018-02-16T08:41:23.876Z,17.27
2018-02-16T08:43:51.759Z,17.00
2018-02-16T08:46:19.623Z,17.77
2018-02-16T08:48:47.580Z,19.27
2018-02-16T08:51:15.464Z,16.67
2018-02-16T08:53:43.392Z,15.50
2018-02-16T08:56:11.293Z,14.77
2018-02-16T08:58:39.160Z,14.20
2018-02-16T09:01:07.018Z,17.97
2018-02-16T09:03:34.894Z,19.40
2018-02-16T09:06:02.835Z,15.70
2018-02-16T09:08:30.768Z,13.60
2018-02-16T09:10:58.656Z,12.97
2018-02-16T09:13:26.487Z,10.60
2018-02-16T09:15:54.365Z,10.23
2018-02-16T09:18:22.247Z,10.40
2018-02-16T09:20:50.132Z,11.50
2018-02-16T09:23:18.050Z,10.37
2018-02-16T09:25:45.941Z,9.97
2018-02-16T09:28:13.834Z,10.63
2018-02-16T09:30:41.671Z,9.10
2018-02-16T09:33:09.583Z,9.80
2018-02-16T09:35:37.810Z,9.80
2018-02-16T09:38:05.715Z,9.93
2018-02-16T09:40:33.607Z,9.20
2018-02-16T09:43:01.448Z,10.20
2018-02-16T09:45:29.296Z,12.80
2018-02-16T09:47:57.167Z,11.50
2018-02-16T09:50:25.080Z,14.87
2018-02-16T09:52:52.963Z,14.90
2018-02-16T09:55:21.052Z,13.40
2018-02-16T09:57:48.898Z,18.07
2018-02-16T10:00:16.910Z,13.10
2018-02-16T10:02:44.823Z,12.50
2018-02-16T10:05:12.684Z,14.20
2018-02-16T10:07:40.595Z,11.97
2018-02-16T10:10:08.488Z,11.57
2018-02-16T10:12:36.339Z,11.03
2018-02-16T10:15:04.310Z,11.90
2018-02-16T10:17:32.199Z,11.17
2018-02-16T10:20:00.105Z,11.63
2018-02-16T10:22:28.079Z,11.33
2018-02-16T10:24:56.015Z,12.73
2018-02-16T10:27:23.891Z,15.40
2018-02-16T10:29:52.003Z,14.40
2018-02-16T10:32:19.891Z,13.10
2018-02-16T10:34:47.746Z,14.37
2018-02-16T10:37:15.627Z,13.80
2018-02-16T10:39:43.509Z,16.70
2018-02-16T10:42:11.376Z,15.17
2018-02-16T10:44:39.215Z,15.13
2018-02-16T10:47:07.121Z,15.23
2018-02-16T10:49:35.074Z,13.87
2018-02-16T10:52:02.955Z,16.00
2018-02-16T10:54:31.008Z,12.47
2018-02-16T10:56:58.855Z,13.20
2018-02-16T10:59:26.772Z,11.60
2018-02-16T11:02:00.879Z,13.73
2018-02-16T11:04:47.534Z,12.80
2018-02-16T11:07:21.519Z,12.10
2018-02-16T11:09:49.359Z,14.47
2018-02-16T11:12:17.214Z,13.03
2018-02-16T11:14:45.085Z,13.97
2018-02-16T11:17:12.939Z,14.50
2018-02-16T11:19:40.775Z,14.57
2018-02-16T11:22:08.699Z,15.63
2018-02-16T11:24:36.595Z,14.20
2018-02-16T11:27:04.581Z,13.53
2018-02-16T11:29:32.458Z,14.27
2018-02-16T11:32:00.327Z,12.93
2018-02-16T11:34:28.180Z,13.67
2018-02-16T11:36:56.075Z,13.27
2018-02-16T11:39:24.069Z,14.03
2018-02-16T11:41:51.933Z,14.50
2018-02-16T11:44:19.823Z,13.40
2018-02-16T11:46:47.663Z,16.77
2018-02-16T11:49:15.534Z,14.70
2018-02-16T11:51:43.399Z,14.10
2018-02-16T11:54:11.268Z,14.03
2018-02-16T11:56:39.127Z,15.43
2018-02-16T11:59:06.965Z,15.40
2018-02-16T12:01:34.841Z,14.50
2018-02-16T12:04:02.712Z,15.20
2018-02-16T12:06:30.560Z,14.73
2018-02-16T12:08:58.424Z,12.90
2018-02-16T12:11:26.272Z,15.30
2018-02-16T12:13:54.180Z,14.23
2018-02-16T12:16:22.027Z,14.93
2018-02-16T12:18:49.884Z,13.47
2018-02-16T12:21:17.762Z,14.00
2018-02-16T12:23:45.618Z,14.93
2018-02-16T12:26:13.562Z,15.20
2018-02-16T12:28:41.412Z,13.30
2018-02-16T12:31:09.265Z,14.00
2018-02-16T12:33:37.175Z,15.13
2018-02-16T12:36:05.043Z,14.40
2018-02-16T12:38:32.897Z,13.80
2018-02-16T12:41:00.867Z,14.77
2018-02-16T12:43:28.777Z,14.07
2018-02-16T12:45:56.683Z,13.47
2018-02-16T12:48:24.564Z,13.60
2018-02-16T12:50:52.406Z,13.87
2018-02-16T12:53:20.257Z,13.60
2018-02-16T12:55:48.148Z,11.70
2018-02-16T12:58:17.057Z,13.57
2018-02-16T13:00:44.951Z,12.93
2018-02-16T13:03:12.816Z,11.60
2018-02-16T13:05:40.671Z,11.27
2018-02-16T13:08:08.569Z,11.37
2018-02-16T13:10:36.439Z,11.30
2018-02-16T13:13:04.283Z,11.07
2018-02-16T13:15:32.195Z,10.57
2018-02-16T13:18:00.129Z,10.07
2018-02-16T13:20:27.984Z,9.47
2018-02-16T13:22:55.833Z,9.57
2018-02-16T13:25:23.793Z,10.40
2018-02-16T13:27:51.652Z,9.37
2018-02-16T13:30:19.567Z,9.20
2018-02-16T13:32:47.424Z,9.50
2018-02-16T13:35:15.293Z,9.73
2018-02-16T13:37:43.185Z,10.27
2018-02-16T13:40:11.071Z,9.87
2018-02-16T13:42:38.967Z,9.70
2018-02-16T13:45:06.820Z,9.47
2018-02-16T13:47:34.693Z,10.47
2018-02-16T13:50:02.606Z,10.03
2018-02-16T13:52:30.483Z,10.67
2018-02-16T13:54:58.359Z,9.60
2018-02-16T13:57:26.255Z,9.50
2018-02-16T13:59:54.152Z,8.87
2018-02-16T14:02:22.063Z,8.37
2018-02-16T14:04:49.916Z,8.50
2018-02-16T14:07:17.792Z,7.77
2018-02-16T14:09:45.656Z,7.73
2018-02-16T14:12:13.511Z,7.67
2018-02-16T14:14:41.377Z,8.47
2018-02-16T14:17:09.230Z,7.20
2018-02-16T14:19:37.101Z,6.80
2018-02-16T14:22:04.963Z,6.33
2018-02-16T14:24:32.819Z,5.30
2018-02-16T14:27:00.687Z,6.13
2018-02-16T14:29:28.550Z,5.87
2018-02-16T14:31:56.443Z,6.10
2018-02-16T14:34:24.727Z,5.60
2018-02-16T14:36:52.587Z,5.80
2018-02-16T14:39:20.473Z,6.37
2018-02-16T14:41:48.334Z,7.00
2018-02-16T14:44:16.622Z,6.70
2018-02-16T14:46:44.479Z,7.77
2018-02-16T14:49:12.372Z,6.93
2018-02-16T14:51:40.277Z,6.90
2018-02-16T14:54:08.150Z,7.67
2018-02-16T14:56:36.054Z,7.20
2018-02-16T14:59:03.969Z,7.90
2018-02-16T15:01:31.879Z,8.07
2018-02-16T15:03:59.809Z,8.60
2018-02-16T15:06:27.658Z,8.50
2018-02-16T15:08:55.564Z,7.30
2018-02-16T15:11:23.481Z,7.17
2018-02-16T15:13:51.331Z,8.13
2018-02-16T15:16:19.247Z,8.50
2018-02-16T15:18:47.112Z,8.33
2018-02-16T15:21:15.025Z,8.37
2018-02-16T15:23:42.921Z,7.93
2018-02-16T15:26:10.841Z,8.90
2018-02-16T15:28:38.700Z,8.00
2018-02-16T15:31:06.546Z,9.30
2018-02-16T15:33:34.435Z,9.13
2018-02-16T15:36:02.282Z,9.23
2018-02-16T15:38:30.148Z,8.00
2018-02-16T15:40:58.091Z,8.90
2018-02-16T15:43:25.988Z,8.23
2018-02-16T15:45:53.851Z,9.43
2018-02-16T15:48:21.759Z,9.23
2018-02-16T15:50:49.606Z,9.00
2018-02-16T15:53:17.498Z,10.00
2018-02-16T15:55:45.357Z,10.00
2018-02-16T15:58:13.206Z,10.63
2018-02-16T16:00:41.052Z,9.13
2018-02-16T16:03:08.962Z,11.20
2018-02-16T16:05:36.833Z,10.53
2018-02-16T16:08:04.684Z,11.20
2018-02-16T16:10:32.569Z,10.23
2018-02-16T16:13:00.415Z,13.70
2018-02-16T16:15:28.273Z,11.30
2018-02-16T16:17:56.218Z,13.47
2018-02-16T16:20:24.073Z,12.40
2018-02-16T16:22:52.893Z,11.83
2018-02-16T16:25:20.779Z,12.10
2018-02-16T16:27:48.615Z,11.00
2018-02-16T16:30:16.519Z,9.97
2018-02-16T16:32:44.384Z,11.27
2018-02-16T16:35:12.236Z,9.93
2018-02-16T16:37:40.137Z,13.20
2018-02-16T16:40:07.992Z,9.37
2018-02-16T16:42:35.863Z,9.70
2018-02-16T16:45:03.773Z,12.03
2018-02-16T16:47:31.649Z,13.23
2018-02-16T16:49:59.523Z,11.03
2018-02-16T16:52:27.433Z,10.47
2018-02-16T16:54:55.315Z,13.17
2018-02-16T16:57:23.220Z,12.87
2018-02-16T16:59:51.083Z,13.80
2018-02-16T17:02:19.021Z,12.57
2018-02-16T17:04:46.889Z,9.80
2018-02-16T17:07:14.814Z,11.47
2018-02-16T17:09:42.649Z,12.70
2018-02-16T17:12:10.498Z,12.30
2018-02-16T17:14:38.393Z,12.43
2018-02-16T17:17:06.228Z,15.30
2018-02-16T17:19:34.158Z,10.50
2018-02-16T17:22:02.038Z,11.40
2018-02-16T17:24:29.900Z,12.33
2018-02-16T17:26:57.790Z,14.03
2018-02-16T17:32:03.590Z,12.63
2018-02-16T17:34:31.457Z,12.70
2018-02-16T17:36:59.320Z,12.10
2018-02-16T17:39:27.258Z,11.23
2018-02-16T17:41:55.147Z,13.43
2018-02-16T17:44:23.427Z,11.60
2018-02-16T17:46:51.355Z,11.70
2018-02-16T17:49:20.132Z,10.93
2018-02-16T17:51:48.019Z,12.17
2018-02-16T17:54:15.900Z,11.80
2018-02-16T17:56:43.773Z,15.00
2018-02-16T17:59:11.615Z,13.87
2018-02-16T18:01:39.519Z,16.73
2018-02-16T18:04:07.357Z,12.47
2018-02-16T18:06:35.214Z,12.53
2018-02-16T18:09:03.111Z,15.00
2018-02-16T18:11:30.995Z,13.70
2018-02-16T18:13:58.965Z,13.73
2018-02-16T18:16:26.841Z,13.30
2018-02-16T18:18:54.711Z,17.13
2018-02-16T18:21:22.606Z,14.37
2018-02-16T18:23:50.456Z,13.40
2018-02-16T18:26:18.364Z,14.33
2018-02-16T18:28:46.205Z,15.30
2018-02-16T18:31:14.074Z,13.73
2018-02-16T18:33:41.946Z,16.57
2018-02-16T18:36:09.837Z,17.93
2018-02-16T18:38:37.725Z,14.87
2018-02-16T18:41:05.627Z,13.90
2018-02-16T18:43:33.527Z,13.80
2018-02-16T18:46:01.379Z,19.60
2018-02-16T18:48:29.293Z,15.77
2018-02-16T18:50:57.478Z,17.50
2018-02-16T18:53:25.407Z,18.10
2018-02-16T18:55:53.310Z,15.63
2018-02-16T18:58:21.152Z,15.60
2018-02-16T19:00:49.005Z,16.37
2018-02-16T19:03:16.904Z,14.63
2018-02-16T19:05:44.756Z,17.57
2018-02-16T19:08:12.635Z,17.67
2018-02-16T19:10:40.557Z,17.47
2018-02-16T19:13:08.464Z,15.20
2018-02-16T19:15:36.344Z,15.60
2018-02-16T19:18:04.224Z,15.50
2018-02-16T19:20:32.213Z,15.13
2018-02-16T19:23:00.119Z,16.60
2018-02-16T19:25:28.027Z,15.20
2018-02-16T19:27:55.890Z,15.07
2018-02-16T19:30:23.765Z,16.17
2018-02-16T19:32:51.696Z,15.53
2018-02-16T19:35:19.567Z,15.23
2018-02-16T19:37:47.458Z,15.60
2018-02-16T19:40:15.303Z,16.80
2018-02-16T19:42:43.336Z,16.00
2018-02-16T19:45:11.515Z,17.90
2018-02-16T19:47:39.800Z,16.37
2018-02-16T19:50:07.735Z,19.03
2018-02-16T19:52:35.635Z,15.30
2018-02-16T19:55:03.566Z,15.50
2018-02-16T19:57:31.455Z,16.97
2018-02-16T19:59:59.309Z,17.53
2018-02-16T20:02:27.204Z,16.90
2018-02-16T20:04:55.180Z,21.87
2018-02-16T20:07:23.483Z,16.47
2018-02-16T20:09:51.404Z,16.50
2018-02-16T20:12:19.495Z,15.87
2018-02-16T20:14:47.591Z,16.00
2018-02-16T20:17:15.494Z,16.43
2018-02-16T20:19:43.442Z,18.10
2018-02-16T20:22:11.354Z,17.90
2018-02-16T20:24:39.250Z,20.53
2018-02-16T20:27:07.409Z,19.87
2018-02-16T20:29:35.739Z,19.67
2018-02-16T20:32:03.675Z,16.03
2018-02-16T20:34:31.607Z,16.00
2018-02-16T20:36:59.933Z,16.53
2018-02-16T20:39:27.879Z,16.93
2018-02-16T20:41:59.462Z,18.63
2018-02-16T20:44:27.364Z,17.03
2018-02-16T20:46:55.223Z,17.27
2018-02-16T20:49:23.156Z,19.63
2018-02-16T20:51:51.087Z,16.83
2018-02-16T20:54:19.016Z,18.37
2018-02-16T20:56:47.044Z,17.80
2018-02-16T20:59:14.994Z,18.07
2018-02-16T21:01:42.873Z,17.57
2018-02-16T21:04:10.715Z,17.73
2018-02-16T21:06:38.607Z,18.60
2018-02-16T21:09:06.465Z,18.90
2018-02-16T21:11:34.320Z,17.20
2018-02-16T21:14:02.192Z,20.73
2018-02-16T21:16:30.101Z,19.97
2018-02-16T21:18:58.026Z,18.10
2018-02-16T21:21:25.916Z,19.10
2018-02-16T21:23:53.816Z,21.33
2018-02-16T21:26:21.683Z,18.70
2018-02-16T21:28:49.589Z,18.47
2018-02-16T21:31:17.483Z,17.70
2018-02-16T21:33:45.318Z,16.93
2018-02-16T21:36:13.224Z,19.17
2018-02-16T21:38:41.095Z,17.87
2018-02-16T21:41:08.988Z,19.33
2018-02-16T21:43:36.878Z,16.00
2018-02-16T21:46:04.839Z,19.73
2018-02-16T21:48:32.719Z,16.60
2018-02-16T21:51:00.620Z,17.93
2018-02-16T21:53:28.494Z,17.60
2018-02-16T21:55:56.373Z,18.00
2018-02-16T21:58:24.253Z,18.50
2018-02-16T22:00:52.097Z,19.50
2018-02-16T22:03:19.972Z,16.83
2018-02-16T22:05:47.967Z,18.90
2018-02-16T22:08:15.860Z,20.00
2018-02-16T22:10:43.738Z,18.33
2018-02-16T22:13:11.720Z,17.40
2018-02-16T22:15:39.579Z,20.40
2018-02-16T22:18:07.435Z,18.43
2018-02-16T22:20:35.318Z,17.53
2018-02-16T22:23:03.164Z,19.77
2018-02-16T22:25:31.003Z,19.33
2018-02-16T22:27:58.903Z,20.07
2018-02-16T22:30:26.807Z,17.70
2018-02-16T22:32:54.665Z,17.80
2018-02-16T22:35:22.574Z,19.37
2018-02-16T22:37:50.423Z,17.20
2018-02-16T22:40:18.303Z,18.10
2018-02-16T22:42:46.244Z,18.70
2018-02-16T22:45:14.131Z,18.10
2018-02-16T22:47:42.224Z,18.60
2018-02-16T22:50:10.079Z,17.73
2018-02-16T22:52:37.943Z,17.37
2018-02-16T22:55:05.808Z,18.30
2018-02-16T22:57:33.647Z,17.50
2018-02-16T23:00:01.523Z,17.70
2018-02-16T23:02:29.398Z,18.10
2018-02-16T23:04:57.327Z,19.10
2018-02-16T23:07:25.283Z,19.07
2018-02-16T23:09:53.159Z,19.87
2018-02-16T23:12:21.110Z,17.37
2018-02-16T23:14:48.975Z,17.90
2018-02-16T23:17:16.852Z,17.77
2018-02-16T23:19:44.702Z,18.40
2018-02-16T23:22:12.557Z,18.13
2018-02-16T23:24:40.435Z,18.50
2018-02-16T23:27:08.355Z,18.00
2018-02-16T23:29:36.222Z,17.37
2018-02-16T23:32:04.065Z,18.43
2018-02-16T23:34:31.911Z,17.50
2018-02-16T23:36:59.780Z,18.23
2018-02-16T23:39:28.687Z,17.77
2018-02-16T23:41:56.562Z,18.07
2018-02-16T23:44:25.525Z,18.57
2018-02-16T23:46:53.378Z,18.67
2018-02-16T23:49:21.247Z,18.60
2018-02-16T23:51:50.119Z,17.20
2018-02-16T23:54:18.008Z,17.33
2018-02-16T23:56:45.870Z,17.07
2018-02-16T23:59:13.765Z,18.20
